createdAt,value
2022-08-14T00:02:03.225Z,17.00
2022-08-14T00:04:36.098Z,20.33
2022-08-14T00:07:14.072Z,18.05
2022-08-14T00:10:02.202Z,16.77
2022-08-14T00:12:37.805Z,16.98
2022-08-14T00:15:37.469Z,17.52
2022-08-14T00:18:14.584Z,15.95
2022-08-14T00:20:43.390Z,16.62
2022-08-14T00:23:16.904Z,16.62
2022-08-14T00:25:53.858Z,16.98
2022-08-14T00:28:34.999Z,16.52
2022-08-14T00:31:04.606Z,16.65
2022-08-14T00:33:50.494Z,15.90
2022-08-14T00:36:35.580Z,15.88
2022-08-14T00:39:09.513Z,15.70
2022-08-14T00:41:38.783Z,16.92
2022-08-14T00:44:06.198Z,16.50
2022-08-14T00:46:33.531Z,15.82
2022-08-14T00:49:02.059Z,14.70
2022-08-14T00:51:37.667Z,15.80
2022-08-14T00:54:17.065Z,15.68
2022-08-14T00:56:55.255Z,14.23
2022-08-14T00:59:25.115Z,16.35
2022-08-14T01:01:55.913Z,15.55
2022-08-14T01:04:38.432Z,14.40
2022-08-14T01:07:11.191Z,15.23
2022-08-14T01:09:41.463Z,16.77
2022-08-14T01:12:09.342Z,14.80
2022-08-14T01:14:37.667Z,14.60
2022-08-14T01:17:08.981Z,15.82
2022-08-14T01:19:54.796Z,15.13
2022-08-14T01:22:21.870Z,15.15
2022-08-14T01:24:54.066Z,14.87
2022-08-14T01:27:24.149Z,15.00
2022-08-14T01:30:01.460Z,14.38
2022-08-14T01:32:35.643Z,14.02
2022-08-14T01:35:21.220Z,14.07
2022-08-14T01:37:57.667Z,14.55
2022-08-14T01:40:36.295Z,14.32
2022-08-14T01:43:14.589Z,13.68
2022-08-14T01:45:42.158Z,13.95
2022-08-14T01:48:13.304Z,13.73
2022-08-14T01:50:42.656Z,14.27
2022-08-14T01:53:11.465Z,13.15
2022-08-14T01:55:40.538Z,14.00
2022-08-14T01:58:19.746Z,13.60
2022-08-14T02:00:54.978Z,14.23
2022-08-14T02:03:31.243Z,12.23
2022-08-14T02:06:03.794Z,14.23
2022-08-14T02:08:53.014Z,13.13
2022-08-14T02:11:24.422Z,13.43
2022-08-14T02:13:56.658Z,12.77
2022-08-14T02:16:26.354Z,13.52
2022-08-14T02:18:56.475Z,13.68
2022-08-14T02:21:26.926Z,12.82
2022-08-14T02:23:55.572Z,13.25
2022-08-14T02:26:29.669Z,13.38
2022-08-14T02:29:03.453Z,14.15
2022-08-14T02:31:41.882Z,12.73
2022-08-14T02:34:22.053Z,13.32
2022-08-14T02:37:04.831Z,12.30
2022-08-14T02:39:45.903Z,12.57
2022-08-14T02:42:15.440Z,12.73
2022-08-14T02:44:50.498Z,13.23
2022-08-14T02:47:21.045Z,13.32
2022-08-14T02:49:54.997Z,12.68
2022-08-14T02:52:55.493Z,13.27
2022-08-14T02:55:19.913Z,13.70
2022-08-14T02:57:58.010Z,12.48
2022-08-14T03:00:25.765Z,12.88
2022-08-14T03:02:58.639Z,12.50
2022-08-14T03:05:32.822Z,14.02
2022-08-14T03:08:21.489Z,12.65
2022-08-14T03:10:49.075Z,12.77
2022-08-14T03:13:19.768Z,11.98
2022-08-14T03:15:55.467Z,13.85
2022-08-14T03:18:31.629Z,13.48
2022-08-14T03:21:05.424Z,12.93
2022-08-14T03:23:37.645Z,11.93
2022-08-14T03:26:08.583Z,13.77
2022-08-14T03:28:36.619Z,12.55
2022-08-14T03:31:04.315Z,13.23
2022-08-14T03:33:38.429Z,11.80
2022-08-14T03:37:28.589Z,12.07
2022-08-14T03:39:12.935Z,12.10
2022-08-14T03:41:47.696Z,12.48
2022-08-14T03:45:19.128Z,11.10
2022-08-14T03:47:02.946Z,11.80
2022-08-14T03:49:30.409Z,13.05
2022-08-14T03:52:02.898Z,12.43
2022-08-14T03:54:31.082Z,12.90
2022-08-14T03:57:02.759Z,12.80
2022-08-14T03:59:30.890Z,12.63
2022-08-14T04:02:02.182Z,12.48
2022-08-14T04:04:32.114Z,12.43
2022-08-14T04:07:00.828Z,11.82
2022-08-14T04:09:28.041Z,11.52
2022-08-14T04:11:56.163Z,11.60
2022-08-14T04:14:24.936Z,11.60
2022-08-14T04:16:51.737Z,12.52
2022-08-14T04:19:22.386Z,12.27
2022-08-14T04:22:02.104Z,12.13
2022-08-14T04:24:38.635Z,12.52
2022-08-14T04:27:11.837Z,12.45
2022-08-14T04:29:42.533Z,10.63
2022-08-14T04:32:58.578Z,12.65
2022-08-14T04:34:57.960Z,11.75
2022-08-14T04:37:45.515Z,12.23
2022-08-14T04:40:40.531Z,12.77
2022-08-14T04:43:32.483Z,12.55
2022-08-14T04:46:11.841Z,11.82
2022-08-14T04:48:59.940Z,12.40
2022-08-14T04:51:28.206Z,12.05
2022-08-14T04:53:57.338Z,12.02
2022-08-14T04:56:31.172Z,12.20
2022-08-14T04:59:09.892Z,13.20
2022-08-14T05:01:41.750Z,12.00
2022-08-14T05:04:16.380Z,11.45
2022-08-14T05:06:49.260Z,12.18
2022-08-14T05:09:16.516Z,12.02
2022-08-14T05:11:44.614Z,12.88
2022-08-14T05:14:34.456Z,11.15
2022-08-14T05:17:01.633Z,12.30
2022-08-14T05:19:30.023Z,13.65
2022-08-14T05:22:16.392Z,11.93
2022-08-14T05:24:50.274Z,12.50
2022-08-14T05:27:23.078Z,12.15
2022-08-14T05:29:56.879Z,11.73
2022-08-14T05:32:27.177Z,12.30
2022-08-14T05:34:58.309Z,11.35
2022-08-14T05:37:28.067Z,12.63
2022-08-14T05:39:55.212Z,12.82
2022-08-14T05:42:26.959Z,13.50
2022-08-14T05:44:56.617Z,11.05
2022-08-14T05:47:28.930Z,12.93
2022-08-14T05:50:09.650Z,12.98
2022-08-14T05:52:44.412Z,12.30
2022-08-14T05:55:11.731Z,12.30
2022-08-14T05:58:01.691Z,11.35
2022-08-14T06:00:39.638Z,11.70
2022-08-14T06:03:09.653Z,11.23
2022-08-14T06:05:38.440Z,13.05
2022-08-14T06:08:31.057Z,12.13
2022-08-14T06:11:06.107Z,11.52
2022-08-14T06:13:44.987Z,11.70
2022-08-14T06:16:17.556Z,12.18
2022-08-14T06:18:52.323Z,12.32
2022-08-14T06:21:23.187Z,12.20
2022-08-14T06:23:51.407Z,12.40
2022-08-14T06:26:20.740Z,12.57
2022-08-14T06:28:52.254Z,12.27
2022-08-14T06:31:21.247Z,15.40
2022-08-14T06:35:09.492Z,11.98
2022-08-14T06:36:38.014Z,13.13
2022-08-14T06:39:08.135Z,12.10
2022-08-14T06:44:32.324Z,12.02
2022-08-14T06:47:02.634Z,12.88
2022-08-14T06:49:30.285Z,12.07
2022-08-14T06:51:57.479Z,11.57
2022-08-14T06:54:31.538Z,12.35
2022-08-14T06:56:58.655Z,11.68
2022-08-14T06:59:25.686Z,12.27
2022-08-14T07:02:13.546Z,11.30
2022-08-14T07:04:59.441Z,12.32
2022-08-14T07:07:28.759Z,10.63
2022-08-14T07:09:55.924Z,11.93
2022-08-14T07:12:54.538Z,10.60
2022-08-14T07:15:11.042Z,11.73
2022-08-14T07:17:46.788Z,11.10
2022-08-14T07:20:31.050Z,10.77
2022-08-14T07:23:06.919Z,12.25
2022-08-14T07:25:38.017Z,11.63
2022-08-14T07:28:33.101Z,11.80
2022-08-14T07:31:04.715Z,11.70
2022-08-14T07:33:42.027Z,11.82
2022-08-14T07:36:27.435Z,13.27
2022-08-14T07:39:03.244Z,11.57
2022-08-14T07:41:33.610Z,10.82
2022-08-14T07:44:22.590Z,10.45
2022-08-14T07:46:50.161Z,10.57
2022-08-14T07:49:17.957Z,9.82
2022-08-14T07:51:45.916Z,10.50
2022-08-14T07:54:23.480Z,10.55
2022-08-14T07:57:12.312Z,10.40
2022-08-14T07:59:43.758Z,10.00
2022-08-14T08:02:19.439Z,10.73
2022-08-14T08:04:54.571Z,10.23
2022-08-14T08:07:29.921Z,10.13
2022-08-14T08:10:01.254Z,10.32
2022-08-14T08:12:30.880Z,10.55
2022-08-14T08:15:05.791Z,10.70
2022-08-14T08:17:42.805Z,10.95
2022-08-14T08:20:27.108Z,10.57
2022-08-14T08:23:05.871Z,10.30
2022-08-14T08:25:41.160Z,10.40
2022-08-14T08:28:22.424Z,10.20
2022-08-14T08:30:56.487Z,11.10
2022-08-14T08:33:26.331Z,9.82
2022-08-14T08:36:01.509Z,10.98
2022-08-14T08:39:17.102Z,11.18
2022-08-14T08:41:15.601Z,10.25
2022-08-14T08:43:46.280Z,10.27
2022-08-14T08:46:23.847Z,11.15
2022-08-14T08:51:25.322Z,9.63
2022-08-14T08:54:02.519Z,10.35
2022-08-14T08:56:48.937Z,10.05
2022-08-14T08:59:27.193Z,10.35
2022-08-14T09:02:00.615Z,10.10
2022-08-14T09:04:45.736Z,11.95
2022-08-14T09:07:27.006Z,9.65
2022-08-14T09:09:59.172Z,10.43
2022-08-14T09:12:32.213Z,12.95
2022-08-14T09:15:11.403Z,10.88
2022-08-14T09:17:41.224Z,12.48
2022-08-14T09:20:11.648Z,10.05
2022-08-14T09:22:42.693Z,10.60
2022-08-14T09:25:17.335Z,11.05
2022-08-14T09:27:47.165Z,9.85
2022-08-14T09:30:33.126Z,10.48
2022-08-14T09:33:11.076Z,10.43
2022-08-14T09:35:58.164Z,9.15
2022-08-14T09:38:43.988Z,9.50
2022-08-14T09:42:21.621Z,10.57
2022-08-14T09:44:46.118Z,10.07
2022-08-14T09:47:16.975Z,10.68
2022-08-14T09:49:47.165Z,9.60
2022-08-14T09:52:32.688Z,9.85
2022-08-14T09:57:34.083Z,10.20
2022-08-14T10:00:30.129Z,10.18
2022-08-14T10:03:03.576Z,9.73
2022-08-14T10:05:35.098Z,9.40
2022-08-14T10:08:25.474Z,8.95
2022-08-14T10:10:57.347Z,9.27
2022-08-14T10:13:30.505Z,8.68
2022-08-14T10:16:25.606Z,9.43
2022-08-14T10:19:15.887Z,9.27
2022-08-14T10:23:11.070Z,10.90
2022-08-14T10:24:46.236Z,9.68
2022-08-14T10:27:23.363Z,9.73
2022-08-14T10:29:55.789Z,9.43
2022-08-14T10:32:28.448Z,9.10
2022-08-14T10:35:10.933Z,9.38
2022-08-14T10:37:52.244Z,9.98
2022-08-14T10:40:38.408Z,9.43
2022-08-14T10:43:23.231Z,11.20
2022-08-14T10:46:03.266Z,10.27
2022-08-14T10:49:03.893Z,9.68
2022-08-14T10:51:36.355Z,9.23
2022-08-14T10:54:16.275Z,8.85
2022-08-14T10:57:18.794Z,8.95
2022-08-14T10:59:49.995Z,9.63
2022-08-14T11:02:53.908Z,8.57
2022-08-14T11:05:23.565Z,9.07
2022-08-14T11:07:55.436Z,9.95
2022-08-14T11:10:39.227Z,9.18
2022-08-14T11:13:10.646Z,9.63
2022-08-14T11:15:37.456Z,9.40
2022-08-14T11:18:05.339Z,9.18
2022-08-14T11:20:33.105Z,8.10
2022-08-14T11:23:01.466Z,8.70
2022-08-14T11:25:43.666Z,9.32
2022-08-14T11:28:19.288Z,8.88
2022-08-14T11:30:54.380Z,9.32
2022-08-14T11:33:29.154Z,9.63
2022-08-14T11:35:59.393Z,9.05
2022-08-14T11:38:29.201Z,9.88
2022-08-14T11:41:00.259Z,8.38
2022-08-14T11:43:29.602Z,8.82
2022-08-14T11:45:57.837Z,10.45
2022-08-14T11:49:03.083Z,9.85
2022-08-14T11:51:26.151Z,10.57
2022-08-14T11:54:06.367Z,9.20
2022-08-14T11:56:43.874Z,9.32
2022-08-14T11:59:19.777Z,10.23
2022-08-14T12:01:54.941Z,9.90
2022-08-14T12:04:33.423Z,9.55
2022-08-14T12:07:01.614Z,9.55
2022-08-14T12:09:33.939Z,8.70
2022-08-14T12:12:02.599Z,8.93
2022-08-14T12:14:35.463Z,9.30
2022-08-14T12:17:09.397Z,9.27
2022-08-14T12:19:45.537Z,9.20
2022-08-14T12:22:12.370Z,8.68
2022-08-14T12:24:53.005Z,8.15
2022-08-14T12:27:25.141Z,8.75
2022-08-14T12:29:53.979Z,9.18
2022-08-14T12:32:21.017Z,8.07
2022-08-14T12:34:54.956Z,8.63
2022-08-14T12:37:30.418Z,8.75
2022-08-14T12:40:15.651Z,9.05
2022-08-14T12:42:53.630Z,8.00
2022-08-14T12:45:31.502Z,8.70
2022-08-14T12:48:21.043Z,8.55
2022-08-14T12:50:52.249Z,7.90
2022-08-14T12:53:21.979Z,8.98
2022-08-14T12:56:21.338Z,8.18
2022-08-14T12:58:55.533Z,8.75
2022-08-14T13:01:28.831Z,8.48
2022-08-14T13:04:14.053Z,8.82
2022-08-14T13:06:44.772Z,11.35
2022-08-14T13:09:17.836Z,9.35
2022-08-14T13:11:58.444Z,8.95
2022-08-14T13:14:38.499Z,10.38
2022-08-14T13:17:05.586Z,9.52
2022-08-14T13:19:35.624Z,9.55
2022-08-14T13:22:09.858Z,9.65
2022-08-14T13:24:48.099Z,10.82
2022-08-14T13:27:18.697Z,9.60
2022-08-14T13:29:47.433Z,9.55
2022-08-14T13:32:15.324Z,9.70
2022-08-14T13:34:45.454Z,9.63
2022-08-14T13:37:16.969Z,11.23
2022-08-14T13:39:56.388Z,9.68
2022-08-14T13:42:30.850Z,11.52
2022-08-14T13:45:02.383Z,10.48
2022-08-14T13:47:33.120Z,11.73
2022-08-14T13:52:53.393Z,11.73
2022-08-14T13:55:25.702Z,9.90
2022-08-14T13:58:03.301Z,9.52
2022-08-14T14:00:53.099Z,9.15
2022-08-14T14:03:24.291Z,10.48
2022-08-14T14:05:54.901Z,9.50
2022-08-14T14:08:46.813Z,9.75
2022-08-14T14:11:15.669Z,9.05
2022-08-14T14:13:45.693Z,10.30
2022-08-14T14:16:15.298Z,10.07
2022-08-14T14:18:56.009Z,11.40
2022-08-14T14:21:26.507Z,9.32
2022-08-14T14:23:57.010Z,9.27
2022-08-14T14:26:24.713Z,9.25
2022-08-14T14:28:57.031Z,9.32
2022-08-14T14:31:29.921Z,10.02
2022-08-14T14:34:29.167Z,10.90
2022-08-14T14:37:04.857Z,10.18
2022-08-14T14:39:37.618Z,9.82
2022-08-14T14:42:06.603Z,10.27
2022-08-14T14:44:40.290Z,9.40
2022-08-14T14:47:15.563Z,8.00
2022-08-14T14:49:54.906Z,9.20
2022-08-14T14:52:26.937Z,8.77
2022-08-14T14:54:57.170Z,11.27
2022-08-14T14:57:35.759Z,9.18
2022-08-14T15:00:06.942Z,9.07
2022-08-14T15:02:39.189Z,9.75
2022-08-14T15:05:08.078Z,9.43
2022-08-14T15:07:36.565Z,9.45
2022-08-14T15:10:27.637Z,9.13
2022-08-14T15:12:57.908Z,10.38
2022-08-14T15:15:27.670Z,8.88
2022-08-14T15:17:55.139Z,10.13
2022-08-14T15:20:30.669Z,9.30
2022-08-14T15:23:12.118Z,8.70
2022-08-14T15:25:45.318Z,9.98
2022-08-14T15:28:21.788Z,9.90
2022-08-14T15:30:51.192Z,10.38
2022-08-14T15:34:01.016Z,10.88
2022-08-14T15:36:35.262Z,9.18
2022-08-14T15:39:03.526Z,9.70
2022-08-14T15:41:33.708Z,8.95
2022-08-14T15:44:25.564Z,8.10
2022-08-14T15:46:54.282Z,9.05
2022-08-14T15:49:24.413Z,9.75
2022-08-14T15:51:59.304Z,8.38
2022-08-14T15:54:31.171Z,8.73
2022-08-14T15:57:00.770Z,7.72
2022-08-14T15:59:48.092Z,9.82
2022-08-14T16:02:16.722Z,8.27
2022-08-14T16:04:46.104Z,8.93
2022-08-14T16:07:18.788Z,8.38
2022-08-14T16:10:01.333Z,8.00
2022-08-14T16:12:41.639Z,8.60
2022-08-14T16:15:16.872Z,9.02
2022-08-14T16:17:44.901Z,8.90
2022-08-14T16:20:12.690Z,9.35
2022-08-14T16:23:05.601Z,9.10
2022-08-14T16:25:42.786Z,8.98
2022-08-14T16:28:10.405Z,9.60
2022-08-14T16:30:54.445Z,8.77
2022-08-14T16:33:56.405Z,9.35
2022-08-14T16:36:26.545Z,10.25
2022-08-14T16:39:00.252Z,8.70
2022-08-14T16:41:27.992Z,9.73
2022-08-14T16:44:02.433Z,10.75
2022-08-14T16:46:42.918Z,9.07
2022-08-14T16:49:14.549Z,9.60
2022-08-14T16:51:43.594Z,8.85
2022-08-14T16:54:34.430Z,9.63
2022-08-14T16:57:34.449Z,10.25
2022-08-14T17:00:07.470Z,9.82
2022-08-14T17:02:46.646Z,10.10
2022-08-14T17:05:26.940Z,11.40
2022-08-14T17:08:28.302Z,10.88
2022-08-14T17:10:51.748Z,10.88
2022-08-14T17:13:58.267Z,11.88
2022-08-14T17:16:24.260Z,11.32
2022-08-14T17:19:03.824Z,11.27
2022-08-14T17:21:38.131Z,10.75
2022-08-14T17:24:55.922Z,11.85
2022-08-14T17:27:00.130Z,11.75
2022-08-14T17:29:33.794Z,12.20
2022-08-14T17:32:22.384Z,11.35
2022-08-14T17:34:55.451Z,12.07
2022-08-14T17:37:35.560Z,11.77
2022-08-14T17:40:16.680Z,12.32
2022-08-14T17:42:51.354Z,11.63
2022-08-14T17:45:41.084Z,12.73
2022-08-14T17:49:10.630Z,12.18
2022-08-14T17:51:14.532Z,14.18
2022-08-14T17:53:52.591Z,12.18
2022-08-14T17:56:21.112Z,12.10
2022-08-14T17:58:49.579Z,12.07
2022-08-14T18:01:23.627Z,13.25
2022-08-14T18:03:54.058Z,12.63
2022-08-14T18:06:40.164Z,12.27
2022-08-14T18:09:24.698Z,11.98
2022-08-14T18:11:58.196Z,14.48
2022-08-14T18:14:32.528Z,11.65
2022-08-14T18:17:16.065Z,13.57
2022-08-14T18:19:45.018Z,13.45
2022-08-14T18:22:31.287Z,12.95
2022-08-14T18:25:02.387Z,12.57
2022-08-14T18:27:38.726Z,13.77
2022-08-14T18:30:36.482Z,13.93
2022-08-14T18:32:59.196Z,13.65
2022-08-14T18:38:52.418Z,13.60
2022-08-14T18:41:36.258Z,15.57
2022-08-14T18:44:10.138Z,14.27
2022-08-14T18:47:10.244Z,12.75
2022-08-14T18:49:55.079Z,13.68
2022-08-14T18:52:39.224Z,14.15
2022-08-14T18:55:18.291Z,13.90
2022-08-14T18:57:57.642Z,13.75
2022-08-14T19:00:32.911Z,14.23
2022-08-14T19:03:03.840Z,14.07
2022-08-14T19:05:47.405Z,14.70
2022-08-14T19:08:26.293Z,14.98
2022-08-14T19:10:57.154Z,14.82
2022-08-14T19:13:48.438Z,13.88
2022-08-14T19:16:26.113Z,13.73
2022-08-14T19:19:00.443Z,14.40
2022-08-14T19:21:32.334Z,14.55
2022-08-14T19:24:27.139Z,13.68
2022-08-14T19:27:19.673Z,13.98
2022-08-14T19:29:51.241Z,14.87
2022-08-14T19:32:36.982Z,14.32
2022-08-14T19:35:18.343Z,15.05
2022-08-14T19:37:57.033Z,13.15
2022-08-14T19:40:31.630Z,14.57
2022-08-14T19:43:02.001Z,14.63
2022-08-14T19:45:33.795Z,14.65
2022-08-14T19:48:02.377Z,15.27
2022-08-14T19:50:40.286Z,13.50
2022-08-14T19:53:16.757Z,13.85
2022-08-14T19:55:56.946Z,15.18
2022-08-14T19:58:54.546Z,14.98
2022-08-14T20:01:27.060Z,14.68
2022-08-14T20:04:45.434Z,14.43
2022-08-14T20:07:04.115Z,14.43
2022-08-14T20:11:04.104Z,14.98
2022-08-14T20:12:28.865Z,15.60
2022-08-14T20:15:15.390Z,14.15
2022-08-14T20:17:52.958Z,14.18
2022-08-14T20:20:32.449Z,14.87
2022-08-14T20:23:11.260Z,13.80
2022-08-14T20:25:45.702Z,14.85
2022-08-14T20:41:51.224Z,14.65
2022-08-14T20:44:42.331Z,14.10
2022-08-14T20:47:16.217Z,14.65
2022-08-14T20:49:43.993Z,13.23
2022-08-14T20:52:19.939Z,14.25
2022-08-14T20:54:51.415Z,15.52
2022-08-14T20:57:19.384Z,15.30
2022-08-14T20:59:57.224Z,15.48
2022-08-14T21:02:49.682Z,14.73
2022-08-14T21:05:20.583Z,13.93
2022-08-14T21:07:51.433Z,13.55
2022-08-14T21:10:35.604Z,13.50
2022-08-14T21:13:25.395Z,14.43
2022-08-14T21:15:57.621Z,14.57
2022-08-14T21:18:31.722Z,14.65
2022-08-14T21:21:06.823Z,14.63
2022-08-14T21:23:54.492Z,20.00
2022-08-14T21:26:51.284Z,14.60
2022-08-14T21:29:14.274Z,15.27
2022-08-14T21:31:42.308Z,14.32
2022-08-14T21:34:31.703Z,14.43
2022-08-14T21:37:09.960Z,14.87
2022-08-14T21:39:37.743Z,14.13
2022-08-14T21:42:06.264Z,15.45
2022-08-14T21:44:42.840Z,14.38
2022-08-14T21:47:13.291Z,14.63
2022-08-14T21:49:46.379Z,15.05
2022-08-14T21:52:50.715Z,15.32
2022-08-14T21:55:10.451Z,13.40
2022-08-14T21:58:46.116Z,14.98
2022-08-14T22:00:36.544Z,15.38
2022-08-14T22:03:10.014Z,14.13
2022-08-14T22:05:39.698Z,14.98
2022-08-14T22:08:12.312Z,14.48
2022-08-14T22:10:42.493Z,14.60
2022-08-14T22:13:12.505Z,14.52
2022-08-14T22:15:43.915Z,14.60
2022-08-14T22:18:20.158Z,14.20
2022-08-14T22:20:53.355Z,15.50
2022-08-14T22:23:23.888Z,15.48
2022-08-14T22:25:52.297Z,14.70
2022-08-14T22:28:27.297Z,14.20
2022-08-14T22:31:09.946Z,15.00
2022-08-14T22:33:39.274Z,15.32
2022-08-14T22:36:26.488Z,14.90
2022-08-14T22:38:54.449Z,13.05
2022-08-14T22:41:27.706Z,14.27
2022-08-14T22:44:03.183Z,14.90
2022-08-14T22:46:30.727Z,14.60
2022-08-14T22:48:57.731Z,14.77
2022-08-14T22:51:27.704Z,14.38
2022-08-14T22:53:56.794Z,15.60
2022-08-14T22:56:29.284Z,16.48
2022-08-14T22:59:03.478Z,14.70
2022-08-14T23:02:05.299Z,13.68
2022-08-14T23:04:53.793Z,14.93
2022-08-14T23:07:23.623Z,14.63
2022-08-14T23:09:57.016Z,14.38
2022-08-14T23:12:27.835Z,15.60
2022-08-14T23:14:56.836Z,15.70
2022-08-14T23:17:23.957Z,14.35
2022-08-14T23:19:56.514Z,15.25
2022-08-14T23:22:26.210Z,15.57
2022-08-14T23:24:57.804Z,16.30
2022-08-14T23:27:31.633Z,14.65
2022-08-14T23:29:58.887Z,14.80
2022-08-14T23:32:30.197Z,15.57
2022-08-14T23:35:00.934Z,15.48
2022-08-14T23:37:29.107Z,15.18
2022-08-14T23:39:56.225Z,15.82
2022-08-14T23:42:23.386Z,15.50
2022-08-14T23:45:08.486Z,14.68
2022-08-14T23:47:52.151Z,16.37
2022-08-14T23:50:34.604Z,14.48
2022-08-14T23:53:28.324Z,15.30
2022-08-14T23:56:06.089Z,14.45
2022-08-14T23:58:36.853Z,15.15
